Culberson, North Carolina
Current Conditions -  °F | °C
As of 11:35 AM on Friday 31 Oct 2014 (Local Time) from KRHP Reporting Station
Overcast Overcast  
Wind Chill: 45°   Ceiling: 8500
Heat Index: 45°   Visibility: 10mi
Dew Point: 40°   Wind: 3mph
Humidity: 84%   Direction: 230°SW
Pressure: 29.95"   Gusts: NA
Location:  34.99°N, 84.17°W
Report Text: KRHP 311535Z AUTO 23003KT 10SM OVC085 07/04 A2995 RMK AO2 T00700044
Loading
Personal Weather Stations






























Interactive Weather Map
Tropical Storm Tracking
New forecast layout! Learn more

10-Day Weather Forecast

Advertisements
Track Severe Weather on mobile